createdAt,value
2019-05-02T00:00:45.333Z,96785.58
2019-05-02T00:03:15.478Z,96788.61
2019-05-02T00:05:45.371Z,96780.97
2019-05-02T00:08:15.151Z,96774.33
2019-05-02T00:10:45.051Z,96786.61
2019-05-02T00:13:14.485Z,96775.70
2019-05-02T00:15:45.572Z,96771.41
2019-05-02T00:18:15.579Z,96769.70
2019-05-02T00:20:44.965Z,96767.70
2019-05-02T00:23:14.488Z,96774.78
2019-05-02T00:25:47.283Z,96766.71
2019-05-02T00:28:14.943Z,96764.66
2019-05-02T00:30:44.538Z,96762.25
2019-05-02T00:33:13.981Z,96759.43
2019-05-02T00:35:46.082Z,96755.66
2019-05-02T00:38:14.591Z,96752.33
2019-05-02T00:40:46.310Z,96754.18
2019-05-02T00:43:15.048Z,96750.02
2019-05-02T00:45:44.480Z,96752.52
2019-05-02T00:48:23.132Z,96747.15
2019-05-02T00:50:52.465Z,96741.28
2019-05-02T00:53:22.012Z,96743.61
2019-05-02T00:55:51.386Z,96742.09
2019-05-02T00:58:20.791Z,96737.16
2019-05-02T01:01:09.137Z,96734.81
2019-05-02T01:03:40.281Z,96732.47
2019-05-02T01:06:13.981Z,96739.12
2019-05-02T01:08:40.918Z,96726.02
2019-05-02T01:11:10.354Z,96734.36
2019-05-02T01:13:39.791Z,96724.73
2019-05-02T01:16:09.258Z,96728.34
2019-05-02T01:18:41.409Z,96722.87
2019-05-02T01:21:10.395Z,96722.38
2019-05-02T01:23:39.878Z,96716.71
2019-05-02T01:26:10.945Z,96719.77
2019-05-02T01:28:54.114Z,96717.40
2019-05-02T01:31:30.468Z,96718.23
2019-05-02T01:34:21.975Z,96712.07
2019-05-02T01:37:00.130Z,96712.55
2019-05-02T01:39:29.591Z,96709.72
2019-05-02T01:41:59.888Z,96712.91
2019-05-02T01:44:31.131Z,96707.48
2019-05-02T01:47:01.401Z,96702.64
2019-05-02T01:49:30.793Z,96707.58
2019-05-02T01:52:00.201Z,96700.19
2019-05-02T01:54:29.680Z,96689.57
2019-05-02T01:56:59.070Z,96695.83
2019-05-02T01:59:29.023Z,96700.05
2019-05-02T02:01:59.627Z,96695.69
2019-05-02T02:04:29.043Z,96692.85
2019-05-02T02:06:58.419Z,96687.23
2019-05-02T02:09:27.955Z,96695.97
2019-05-02T02:11:57.323Z,96695.69
2019-05-02T02:14:26.695Z,96699.22
2019-05-02T02:16:56.175Z,96687.64
2019-05-02T02:19:34.666Z,96691.67
2019-05-02T02:22:09.039Z,96695.42
2019-05-02T02:24:42.022Z,96701.13
2019-05-02T02:27:11.459Z,96696.97
2019-05-02T02:29:43.937Z,96704.61
2019-05-02T02:32:12.004Z,96690.53
2019-05-02T02:34:41.502Z,96688.30
2019-05-02T02:37:14.724Z,96691.75
2019-05-02T02:39:41.982Z,96692.59
2019-05-02T02:42:11.355Z,96698.28
2019-05-02T02:44:56.185Z,96689.86
2019-05-02T02:47:25.620Z,96693.84
2019-05-02T02:50:02.691Z,96690.19
2019-05-02T02:52:26.156Z,96690.63
2019-05-02T02:54:55.515Z,96688.13
2019-05-02T02:57:28.229Z,96683.98
2019-05-02T03:00:06.114Z,96684.25
2019-05-02T03:02:27.229Z,96685.30
2019-05-02T03:04:56.697Z,96684.10
2019-05-02T03:07:28.773Z,96683.15
2019-05-02T03:09:59.782Z,96681.83
2019-05-02T03:12:59.341Z,96673.50
2019-05-02T03:15:30.905Z,96673.09
2019-05-02T03:18:02.091Z,96677.12
2019-05-02T03:20:40.138Z,96674.27
2019-05-02T03:23:02.843Z,96680.29
2019-05-02T03:25:50.084Z,96672.75
2019-05-02T03:28:04.096Z,96676.97
2019-05-02T03:30:37.172Z,96681.45
2019-05-02T03:33:10.971Z,96672.25
2019-05-02T03:35:42.897Z,96684.39
2019-05-02T03:38:07.354Z,96678.34
2019-05-02T03:40:38.870Z,96687.65
2019-05-02T03:43:08.453Z,96676.91
2019-05-02T03:45:40.307Z,96675.98
2019-05-02T03:48:09.111Z,96680.86
2019-05-02T03:50:38.848Z,96678.62
2019-05-02T03:53:08.339Z,96671.59
2019-05-02T03:55:37.764Z,96665.69
2019-05-02T03:58:13.840Z,96669.09
2019-05-02T04:00:38.561Z,96672.71
2019-05-02T04:03:08.478Z,96674.59
2019-05-02T04:05:40.336Z,96665.08
2019-05-02T04:08:20.146Z,96672.09
2019-05-02T04:11:18.080Z,96668.87
2019-05-02T04:13:47.818Z,96662.21
2019-05-02T04:16:17.734Z,96666.81
2019-05-02T04:18:54.453Z,96667.37
2019-05-02T04:21:24.320Z,96671.09
2019-05-02T04:23:50.217Z,96667.37
2019-05-02T04:26:19.945Z,96663.48
2019-05-02T04:28:51.554Z,96667.12
2019-05-02T04:31:24.815Z,96665.92
2019-05-02T04:33:52.112Z,96661.52
2019-05-02T04:36:21.579Z,96670.45
2019-05-02T04:38:52.471Z,96667.38
2019-05-02T04:41:28.554Z,96668.31
2019-05-02T04:43:57.353Z,96669.44
2019-05-02T04:46:28.050Z,96673.53
2019-05-02T04:48:58.758Z,96670.80
2019-05-02T04:51:30.887Z,96671.41
2019-05-02T04:53:58.947Z,96672.02
2019-05-02T04:56:28.540Z,96672.47
2019-05-02T04:59:01.401Z,96678.69
2019-05-02T05:01:33.070Z,96675.77
2019-05-02T05:04:03.026Z,96673.62
2019-05-02T05:06:31.546Z,96680.63
2019-05-02T05:09:03.985Z,96675.25
2019-05-02T05:11:32.291Z,96678.23
2019-05-02T05:14:01.761Z,96691.91
2019-05-02T05:16:31.339Z,96683.50
2019-05-02T05:19:00.814Z,96692.67
2019-05-02T05:21:30.314Z,96693.77
2019-05-02T05:24:18.788Z,96686.48
2019-05-02T05:26:51.407Z,96692.48
2019-05-02T05:29:23.200Z,96689.03
2019-05-02T05:31:55.029Z,96684.95
2019-05-02T05:34:28.573Z,96696.61
2019-05-02T05:36:54.527Z,96685.75
2019-05-02T05:39:24.118Z,96681.11
2019-05-02T05:41:53.683Z,96688.47
2019-05-02T05:44:27.904Z,96689.33
2019-05-02T05:46:54.419Z,96694.71
2019-05-02T05:49:23.980Z,96694.88
2019-05-02T05:51:54.442Z,96693.37
2019-05-02T05:54:24.858Z,96694.06
2019-05-02T05:56:54.420Z,96696.00
2019-05-02T05:59:28.320Z,96688.27
2019-05-02T06:01:55.190Z,96693.64
2019-05-02T06:04:30.149Z,96694.91
2019-05-02T06:06:59.579Z,96698.27
2019-05-02T06:09:31.253Z,96688.83
2019-05-02T06:11:58.122Z,96696.14
2019-05-02T06:14:27.668Z,96689.88
2019-05-02T06:16:57.179Z,96696.31
2019-05-02T06:19:26.677Z,96692.16
2019-05-02T06:21:56.294Z,96694.47
2019-05-02T06:24:25.821Z,96695.61
2019-05-02T06:26:55.291Z,96684.46
2019-05-02T06:29:24.795Z,96684.00
2019-05-02T06:31:54.362Z,96688.59
2019-05-02T06:34:23.936Z,96686.52
2019-05-02T06:36:53.529Z,96685.98
2019-05-02T06:39:27.092Z,96690.63
2019-05-02T06:41:57.416Z,96685.78
2019-05-02T06:44:25.628Z,96689.28
2019-05-02T06:46:59.257Z,96680.53
2019-05-02T06:49:26.453Z,96680.60
2019-05-02T06:51:57.558Z,96680.36
2019-05-02T06:54:27.192Z,96677.63
2019-05-02T06:56:56.773Z,96679.08
2019-05-02T06:59:26.297Z,96675.27
2019-05-02T07:01:57.356Z,96673.33
2019-05-02T07:04:27.260Z,96682.61
2019-05-02T07:06:59.017Z,96680.26
2019-05-02T07:09:39.938Z,96678.18
2019-05-02T07:12:01.514Z,96679.40
2019-05-02T07:14:30.657Z,96676.75
2019-05-02T07:17:18.332Z,96673.23
2019-05-02T07:19:50.910Z,96676.97
2019-05-02T07:22:20.588Z,96672.67
2019-05-02T07:24:50.246Z,96675.04
2019-05-02T07:27:19.822Z,96671.95
2019-05-02T07:29:52.189Z,96674.01
2019-05-02T07:32:24.797Z,96665.13
2019-05-02T07:34:51.833Z,96660.34
2019-05-02T07:37:21.793Z,96667.08
2019-05-02T07:39:51.335Z,96657.67
2019-05-02T07:42:23.007Z,96661.94
2019-05-02T07:44:52.687Z,96661.34
2019-05-02T07:47:22.244Z,96658.12
2019-05-02T07:49:51.920Z,96656.41
2019-05-02T07:52:21.470Z,96659.38
2019-05-02T07:54:51.096Z,96661.01
2019-05-02T07:57:25.369Z,96657.73
2019-05-02T07:59:55.102Z,96657.52
2019-05-02T08:02:25.024Z,96655.09
2019-05-02T08:04:55.223Z,96652.15
2019-05-02T08:07:30.010Z,96651.31
2019-05-02T08:09:56.133Z,96654.45
2019-05-02T08:12:25.725Z,96652.03
2019-05-02T08:14:55.331Z,96649.95
2019-05-02T08:17:24.906Z,96657.59
2019-05-02T08:19:54.379Z,96649.06
2019-05-02T08:22:23.958Z,96656.00
2019-05-02T08:24:53.534Z,96653.31
2019-05-02T08:27:42.152Z,96648.13
2019-05-02T08:30:21.255Z,96650.80
2019-05-02T08:32:50.926Z,96652.33
2019-05-02T08:35:20.765Z,96640.48
2019-05-02T08:37:59.235Z,96645.63
2019-05-02T08:40:28.872Z,96641.84
2019-05-02T08:43:03.544Z,96639.41
2019-05-02T08:45:33.113Z,96632.78
2019-05-02T08:48:05.107Z,96641.11
2019-05-02T08:50:34.975Z,96630.20
2019-05-02T08:53:04.552Z,96635.97
2019-05-02T08:55:34.196Z,96632.98
2019-05-02T08:58:14.002Z,96635.02
2019-05-02T09:00:39.487Z,96631.41
2019-05-02T09:03:08.800Z,96630.56
2019-05-02T09:05:45.571Z,96625.78
2019-05-02T09:08:14.259Z,96631.38
2019-05-02T09:10:42.224Z,96625.25
2019-05-02T09:13:15.897Z,96623.70
2019-05-02T09:15:49.774Z,96619.80
2019-05-02T09:18:14.627Z,96620.12
2019-05-02T09:20:47.050Z,96610.00
2019-05-02T09:23:15.276Z,96604.91
2019-05-02T09:25:44.801Z,96610.20
2019-05-02T09:28:17.136Z,96599.08
2019-05-02T09:30:46.857Z,96598.59
2019-05-02T09:33:16.344Z,96596.80
2019-05-02T09:35:45.834Z,96588.86
2019-05-02T09:38:16.370Z,96589.41
2019-05-02T09:40:47.169Z,96585.42
2019-05-02T09:43:17.285Z,96591.42
2019-05-02T09:45:46.874Z,96584.95
2019-05-02T09:48:17.313Z,96571.98
2019-05-02T09:50:47.497Z,96576.02
2019-05-02T09:53:20.600Z,96574.85
2019-05-02T09:55:50.267Z,96570.67
2019-05-02T09:58:21.488Z,96565.52
2019-05-02T10:01:03.012Z,96557.55
2019-05-02T10:03:32.562Z,96561.13
2019-05-02T10:06:03.089Z,96550.70
2019-05-02T10:08:32.946Z,96551.49
2019-05-02T10:11:02.994Z,96545.35
2019-05-02T10:13:33.318Z,96551.31
2019-05-02T10:16:02.852Z,96545.80
2019-05-02T10:18:32.934Z,96529.12
2019-05-02T10:21:03.154Z,96537.46
2019-05-02T10:23:32.822Z,96529.16
2019-05-02T10:26:04.167Z,96523.42
2019-05-02T10:28:33.776Z,96528.81
2019-05-02T10:31:03.315Z,96535.75
2019-05-02T10:33:37.502Z,96527.46
2019-05-02T10:36:04.632Z,96525.80
2019-05-02T10:38:34.548Z,96516.09
2019-05-02T10:41:04.919Z,96517.54
2019-05-02T10:43:34.567Z,96515.72
2019-05-02T10:46:14.442Z,96507.43
2019-05-02T10:48:52.533Z,96509.49
2019-05-02T10:51:34.380Z,96508.52
2019-05-02T10:54:05.607Z,96498.25
2019-05-02T10:56:35.585Z,96506.89
2019-05-02T10:59:13.225Z,96485.34
2019-05-02T11:01:59.312Z,96497.23
2019-05-02T11:04:29.364Z,96494.37
2019-05-02T11:06:59.118Z,96484.75
2019-05-02T11:09:28.751Z,96484.41
2019-05-02T11:11:58.868Z,96478.31
2019-05-02T11:14:36.229Z,96478.73
2019-05-02T11:17:17.668Z,96477.53
2019-05-02T11:19:53.216Z,96473.94
2019-05-02T11:22:22.841Z,96468.09
2019-05-02T11:24:52.518Z,96466.19
2019-05-02T11:27:22.226Z,96459.94
2019-05-02T11:29:52.566Z,96471.50
2019-05-02T11:32:22.446Z,96472.30
2019-05-02T11:34:52.490Z,96458.70
2019-05-02T11:37:22.617Z,96459.61
2019-05-02T11:39:58.898Z,96456.61
2019-05-02T11:42:27.253Z,96457.53
2019-05-02T11:44:55.073Z,96461.80
2019-05-02T11:47:26.568Z,96461.09
2019-05-02T11:49:56.145Z,96458.52
2019-05-02T11:52:27.506Z,96454.27
2019-05-02T11:54:56.938Z,96462.80
2019-05-02T11:57:28.645Z,96465.41
2019-05-02T11:59:59.371Z,96464.03
2019-05-02T12:02:58.338Z,96463.17
2019-05-02T12:05:35.731Z,96461.55
2019-05-02T12:08:08.040Z,96452.42
2019-05-02T12:10:36.822Z,96454.55
2019-05-02T12:13:13.836Z,96455.77
2019-05-02T12:15:38.236Z,96450.46
2019-05-02T12:18:08.216Z,96436.51
2019-05-02T12:20:37.877Z,96437.61
2019-05-02T12:23:09.206Z,96438.67
2019-05-02T12:25:38.838Z,96430.48
2019-05-02T12:28:08.655Z,96432.13
2019-05-02T12:30:38.389Z,96427.61
2019-05-02T12:33:08.102Z,96425.41
2019-05-02T12:35:37.912Z,96413.81
2019-05-02T12:38:12.216Z,96415.41
2019-05-02T12:40:59.364Z,96406.67
2019-05-02T12:43:29.126Z,96403.69
2019-05-02T12:45:58.985Z,96406.85
2019-05-02T12:48:28.627Z,96396.39
2019-05-02T12:51:02.010Z,96399.41
2019-05-02T12:53:32.632Z,96394.48
2019-05-02T12:56:02.397Z,96389.27
2019-05-02T12:58:32.617Z,96395.80
2019-05-02T13:01:02.920Z,96388.79
2019-05-02T13:04:03.874Z,96380.22
2019-05-02T13:06:36.755Z,96376.68
2019-05-02T13:09:08.427Z,96379.63
2019-05-02T13:12:00.249Z,96379.53
2019-05-02T13:14:32.029Z,96375.28
2019-05-02T13:17:05.611Z,96359.48
2019-05-02T13:19:40.652Z,96369.14
2019-05-02T13:22:22.229Z,96366.70
2019-05-02T13:24:57.816Z,96350.17
2019-05-02T13:27:43.258Z,96355.64
2019-05-02T13:30:03.479Z,96357.45
2019-05-02T13:32:37.808Z,96358.34
2019-05-02T13:35:24.587Z,96357.86
2019-05-02T13:37:55.944Z,96353.94
2019-05-02T13:40:35.714Z,96356.83
2019-05-02T13:43:05.252Z,96355.44
2019-05-02T13:45:53.913Z,96352.49
2019-05-02T13:48:23.447Z,96351.09
2019-05-02T13:50:53.129Z,96338.84
2019-05-02T13:53:22.785Z,96341.50
2019-05-02T13:55:58.795Z,96340.05
2019-05-02T13:58:29.210Z,96339.95
2019-05-02T14:00:59.840Z,96326.52
2019-05-02T14:03:29.416Z,96328.73
2019-05-02T14:05:58.888Z,96329.39
2019-05-02T14:08:43.710Z,96311.05
2019-05-02T14:11:31.743Z,96311.33
2019-05-02T14:14:01.946Z,96308.66
2019-05-02T14:16:34.615Z,96315.90
2019-05-02T14:19:07.221Z,96307.00
2019-05-02T14:21:36.838Z,96305.57
2019-05-02T14:24:06.493Z,96306.59
2019-05-02T14:26:35.949Z,96311.88
2019-05-02T14:29:07.098Z,96304.30
2019-05-02T14:31:36.979Z,96301.85
2019-05-02T14:34:27.453Z,96297.73
2019-05-02T14:36:59.307Z,96290.91
2019-05-02T14:39:28.275Z,96286.87
2019-05-02T14:41:58.025Z,96285.98
2019-05-02T14:44:50.790Z,96276.47
2019-05-02T14:46:58.955Z,96277.69
2019-05-02T14:49:28.669Z,96273.37
2019-05-02T14:52:02.916Z,96276.52
2019-05-02T14:54:29.758Z,96281.63
2019-05-02T14:57:09.357Z,96274.65
2019-05-02T14:59:38.988Z,96277.97
2019-05-02T15:02:13.148Z,96274.63
2019-05-02T15:04:47.301Z,96272.23
2019-05-02T15:07:17.589Z,96264.63
2019-05-02T15:09:45.534Z,96269.31
2019-05-02T15:12:18.846Z,96266.74
2019-05-02T15:14:49.739Z,96264.09
2019-05-02T15:17:18.063Z,96262.38
2019-05-02T15:19:47.648Z,96266.95
2019-05-02T15:22:17.229Z,96260.31
2019-05-02T15:24:46.741Z,96266.65
2019-05-02T15:27:17.711Z,96266.06
2019-05-02T15:29:47.546Z,96268.72
2019-05-02T15:32:46.202Z,96256.12
2019-05-02T15:35:35.853Z,96252.84
2019-05-02T15:38:06.805Z,96258.23
2019-05-02T15:40:48.117Z,96247.53
2019-05-02T15:43:09.585Z,96255.92
2019-05-02T15:45:43.470Z,96252.28
2019-05-02T15:48:14.608Z,96251.58
2019-05-02T15:50:50.252Z,96244.55
2019-05-02T15:53:19.283Z,96239.18
2019-05-02T15:55:50.059Z,96243.14
2019-05-02T15:58:26.078Z,96249.06
2019-05-02T16:01:11.998Z,96250.47
2019-05-02T16:03:45.892Z,96239.55
2019-05-02T16:06:16.464Z,96245.88
2019-05-02T16:08:48.651Z,96242.62
2019-05-02T16:11:18.585Z,96243.04
2019-05-02T16:13:54.736Z,96242.62
2019-05-02T16:16:22.022Z,96235.22
2019-05-02T16:18:52.542Z,96232.16
2019-05-02T16:21:32.611Z,96237.52
2019-05-02T16:24:22.889Z,96228.83
2019-05-02T16:26:57.075Z,96232.72
2019-05-02T16:29:28.701Z,96225.83
2019-05-02T16:32:15.242Z,96229.18
2019-05-02T16:35:12.205Z,96218.52
2019-05-02T16:37:37.159Z,96221.61
2019-05-02T16:40:07.584Z,96223.50
2019-05-02T16:42:37.781Z,96214.01
2019-05-02T16:45:09.438Z,96220.16
2019-05-02T16:47:39.221Z,96211.58
2019-05-02T16:50:09.312Z,96215.59
2019-05-02T16:52:43.725Z,96215.68
2019-05-02T16:55:13.678Z,96213.25
2019-05-02T16:57:42.436Z,96213.73
2019-05-02T17:00:14.158Z,96205.22
2019-05-02T17:02:46.346Z,96206.24
2019-05-02T17:05:15.395Z,96211.38
2019-05-02T17:08:03.196Z,96214.88
2019-05-02T17:10:56.882Z,96210.58
2019-05-02T17:13:27.411Z,96207.28
2019-05-02T17:15:57.872Z,96214.64
2019-05-02T17:18:27.705Z,96209.64
2019-05-02T17:20:57.307Z,96212.09
2019-05-02T17:23:26.942Z,96217.50
2019-05-02T17:25:56.511Z,96216.11
2019-05-02T17:28:26.171Z,96217.41
2019-05-02T17:30:55.834Z,96224.16
2019-05-02T17:33:25.476Z,96229.20
2019-05-02T17:35:55.101Z,96231.33
2019-05-02T17:38:29.082Z,96231.72
2019-05-02T17:40:59.219Z,96237.64
2019-05-02T17:43:37.470Z,96241.13
2019-05-02T17:46:07.490Z,96232.55
2019-05-02T17:48:37.360Z,96242.14
2019-05-02T17:51:22.744Z,96240.89
2019-05-02T17:53:52.433Z,96245.16
2019-05-02T17:56:23.182Z,96245.83
2019-05-02T17:58:58.160Z,96250.28
2019-05-02T18:01:35.365Z,96250.55
2019-05-02T18:04:06.683Z,96255.87
2019-05-02T18:06:36.792Z,96260.59
2019-05-02T18:09:08.388Z,96262.30
2019-05-02T18:11:38.060Z,96273.27
2019-05-02T18:14:16.152Z,96309.18
2019-05-02T18:16:41.844Z,96318.39
2019-05-02T18:19:11.153Z,96332.56
2019-05-02T19:46:42.236Z,96386.53
2019-05-02T19:49:16.023Z,96384.73
2019-05-02T19:51:43.431Z,96384.58
2019-05-02T19:54:12.903Z,96379.43
2019-05-02T19:56:47.130Z,96371.77
2019-05-02T19:59:16.833Z,96367.47
2019-05-02T20:01:45.053Z,96358.37
2019-05-02T20:04:14.623Z,96357.54
2019-05-02T20:06:44.284Z,96343.16
2019-05-02T20:09:13.940Z,96361.19
2019-05-02T20:11:43.536Z,96354.89
2019-05-02T20:14:13.145Z,96360.05
2019-05-02T20:16:48.313Z,96362.88
2019-05-02T20:19:24.999Z,96352.44
2019-05-02T20:22:08.219Z,96360.25
2019-05-02T20:24:59.800Z,96346.96
2019-05-02T20:27:27.970Z,96342.02
2019-05-02T20:29:56.609Z,96350.17
2019-05-02T20:32:26.286Z,96348.34
2019-05-02T20:34:55.861Z,96348.84
2019-05-02T20:37:25.638Z,96350.72
2019-05-02T20:39:55.181Z,96366.48
2019-05-02T20:42:24.734Z,96365.98
2019-05-02T20:44:54.328Z,96372.72
2019-05-02T20:47:24.854Z,96369.94
2019-05-02T20:49:54.396Z,96372.74
2019-05-02T20:52:24.104Z,96368.86
2019-05-02T20:54:53.742Z,96364.40
2019-05-02T20:57:23.462Z,96357.31
2019-05-02T20:59:53.128Z,96362.45
2019-05-02T21:02:22.786Z,96360.13
2019-05-02T21:04:52.501Z,96374.34
2019-05-02T21:07:33.083Z,96368.88
2019-05-02T21:10:18.831Z,96374.50
2019-05-02T21:12:48.486Z,96382.77
2019-05-02T21:15:18.388Z,96391.21
2019-05-02T21:17:47.903Z,96402.41
2019-05-02T21:20:18.014Z,96405.98
2019-05-02T21:22:47.691Z,96400.45
2019-05-02T21:25:17.275Z,96402.95
2019-05-02T21:27:46.964Z,96407.65
2019-05-02T21:30:21.723Z,96400.31
2019-05-02T21:32:52.051Z,96407.95
2019-05-02T21:35:22.370Z,96411.61
2019-05-02T21:37:52.447Z,96416.23
2019-05-02T21:40:22.695Z,96421.75
2019-05-02T21:42:53.340Z,96424.91
2019-05-02T21:45:22.913Z,96419.94
2019-05-02T21:47:52.823Z,96417.48
2019-05-02T21:50:40.300Z,96425.58
2019-05-02T21:53:32.740Z,96421.00
2019-05-02T21:56:12.293Z,96418.53
2019-05-02T21:59:02.842Z,96417.92
2019-05-02T22:01:33.041Z,96424.97
2019-05-02T22:04:02.557Z,96421.55
2019-05-02T22:06:32.463Z,96434.82
2019-05-02T22:09:03.036Z,96434.23
2019-05-02T22:11:32.687Z,96442.63
2019-05-02T22:14:02.498Z,96443.70
2019-05-02T22:16:32.670Z,96439.98
2019-05-02T22:19:02.940Z,96441.95
2019-05-02T22:21:35.204Z,96430.34
2019-05-02T22:24:11.031Z,96433.05
2019-05-02T22:26:35.244Z,96429.58
2019-05-02T22:29:04.849Z,96426.32
2019-05-02T22:31:34.499Z,96425.34
2019-05-02T22:34:04.176Z,96429.29
2019-05-02T22:36:33.766Z,96427.95
2019-05-02T22:39:16.202Z,96424.97
2019-05-02T22:41:45.652Z,96428.95
2019-05-02T22:44:15.176Z,96432.69
2019-05-02T22:46:45.500Z,96428.16
2019-05-02T22:49:15.361Z,96431.21
2019-05-02T22:51:45.113Z,96425.07
2019-05-02T22:54:26.681Z,96442.14
2019-05-02T22:56:46.013Z,96436.92
2019-05-02T22:59:15.586Z,96435.67
2019-05-02T23:01:45.246Z,96431.59
2019-05-02T23:04:14.730Z,96438.19
2019-05-02T23:06:44.436Z,96433.03
2019-05-02T23:09:14.019Z,96431.41
2019-05-02T23:11:43.569Z,96434.08
2019-05-02T23:14:13.209Z,96427.30
2019-05-02T23:16:42.991Z,96433.18
2019-05-02T23:19:12.634Z,96427.64
2019-05-02T23:21:42.542Z,96425.33
2019-05-02T23:24:23.760Z,96434.02
2019-05-02T23:27:03.584Z,96431.00
2019-05-02T23:29:33.141Z,96435.21
2019-05-02T23:32:02.658Z,96428.11
2019-05-02T23:34:32.446Z,96431.57
2019-05-02T23:37:02.654Z,96425.41
2019-05-02T23:39:32.373Z,96420.19
2019-05-02T23:42:02.101Z,96426.31
2019-05-02T23:44:31.678Z,96422.53
2019-05-02T23:47:02.351Z,96430.74
2019-05-02T23:49:32.483Z,96429.41
2019-05-02T23:52:02.316Z,96433.70
2019-05-02T23:54:32.432Z,96435.83
2019-05-02T23:57:02.108Z,96430.19
2019-05-02T23:59:31.895Z,96426.75
